Time;durP1;ratioP1;P1;durP2;ratioP2;P2;SDS_P1;SDS_P2;PMS_P1;PMS_P2;Temp;Humidity;BMP_temperature;BMP_pressure;BME280_temperature;BME280_humidity;BME280_pressure;Samples;Min_cycle;Max_cycle;Signal;HPM_P1;HPM_P2
2021/10/17 00:01:32;;;;;;;4.45;1.45;;;;;;;6.05;100.00;101186.78;5275098;28;20486;-80
2021/10/17 00:04:03;;;;;;;4.95;1.60;;;;;;;6.05;100.00;101184.19;5277808;28;20027;-80
2021/10/17 00:06:33;;;;;;;5.63;1.48;;;;;;;6.03;100.00;101185.91;5274286;28;20137;-80
2021/10/17 00:09:03;;;;;;;2.92;1.50;;;;;;;6.14;100.00;101184.13;5271289;28;20503;-80
2021/10/17 00:11:34;;;;;;;4.75;1.65;;;;;;;6.00;100.00;101194.59;5279237;28;20106;-80
2021/10/17 00:14:04;;;;;;;5.90;1.88;;;;;;;6.11;100.00;101197.13;5278412;28;20135;-80
2021/10/17 00:16:34;;;;;;;9.82;1.90;;;;;;;6.12;100.00;101201.44;5278610;28;20027;-80
2021/10/17 00:19:05;;;;;;;4.72;1.75;;;;;;;6.06;100.00;101193.69;5277235;28;20036;-80
2021/10/17 00:21:35;;;;;;;4.72;1.60;;;;;;;5.95;100.00;101185.13;5279722;28;20036;-80
2021/10/17 00:24:05;;;;;;;4.25;1.67;;;;;;;5.85;100.00;101183.47;5277031;28;21392;-80
2021/10/17 00:26:35;;;;;;;5.07;2.03;;;;;;;5.80;100.00;101177.44;5278014;28;20023;-80
2021/10/17 00:29:06;;;;;;;6.30;1.40;;;;;;;5.78;100.00;101192.13;5276627;28;20068;-80
2021/10/17 00:31:37;;;;;;;6.30;1.80;;;;;;;5.94;100.00;101197.22;5274713;28;20109;-80
2021/10/17 00:34:07;;;;;;;5.70;2.00;;;;;;;5.90;100.00;101181.72;5279718;28;20028;-80
2021/10/17 00:36:37;;;;;;;3.95;1.60;;;;;;;5.73;100.00;101186.13;5275736;28;20026;-80
2021/10/17 00:39:08;;;;;;;3.97;1.45;;;;;;;5.68;100.00;101190.44;5269295;28;20482;-80
2021/10/17 00:41:39;;;;;;;5.68;1.73;;;;;;;5.67;100.00;101187.00;5295942;27;20051;-80
2021/10/17 00:44:19;;;;;;;7.05;1.95;;;;;;;5.90;100.00;101189.50;5275839;28;20016;-80
2021/10/17 00:46:51;;;;;;;4.07;1.80;;;;;;;5.57;100.00;101189.66;5279813;28;20038;-80
2021/10/17 00:49:21;;;;;;;3.60;1.60;;;;;;;5.51;100.00;101192.28;5272732;28;20024;-80
2021/10/17 00:51:51;;;;;;;4.45;1.65;;;;;;;5.33;100.00;101189.78;5271270;28;20312;-81
2021/10/17 00:54:22;;;;;;;3.03;1.40;;;;;;;5.35;100.00;101189.78;5275957;28;20092;-80
2021/10/17 00:56:52;;;;;;;2.92;1.58;;;;;;;5.36;100.00;101189.75;5279579;28;20024;-80
2021/10/17 00:59:22;;;;;;;4.50;1.85;;;;;;;5.32;100.00;101185.47;5276504;28;20020;-80
2021/10/17 01:01:53;;;;;;;4.38;1.67;;;;;;;5.37;100.00;101180.28;5293449;27;20066;-80
2021/10/17 01:04:23;;;;;;;2.53;1.25;;;;;;;5.37;100.00;101183.75;5271740;28;20019;-80
2021/10/17 01:06:54;;;;;;;6.47;1.75;;;;;;;5.36;100.00;101184.56;5276446;28;20031;-80
2021/10/17 01:09:25;;;;;;;3.40;1.42;;;;;;;5.48;100.00;101185.41;5270536;28;20503;-80
2021/10/17 01:11:55;;;;;;;3.85;1.50;;;;;;;5.54;100.00;101185.34;5278873;28;20027;-80
2021/10/17 01:14:25;;;;;;;3.03;1.40;;;;;;;5.52;100.00;101181.03;5277647;28;20055;-80
2021/10/17 01:16:56;;;;;;;3.85;1.80;;;;;;;5.44;100.00;101182.81;5278827;28;20085;-80
2021/10/17 01:19:27;;;;;;;4.65;1.55;;;;;;;5.55;100.00;101171.53;5278099;28;20023;-80
2021/10/17 01:21:57;;;;;;;3.50;1.40;;;;;;;5.53;100.00;101168.09;5279760;28;20055;-80
2021/10/17 01:24:28;;;;;;;4.35;1.52;;;;;;;5.56;100.00;101182.78;5276877;28;20020;-80
2021/10/17 01:26:58;;;;;;;5.75;2.00;;;;;;;5.61;100.00;101174.06;5278786;28;20620;-80
2021/10/17 01:29:28;;;;;;;3.88;1.40;;;;;;;5.49;100.00;101173.28;5278244;28;20028;-80
2021/10/17 01:32:00;;;;;;;4.18;2.10;;;;;;;5.63;100.00;101168.88;5279930;28;20506;-80
2021/10/17 01:34:31;;;;;;;3.85;1.65;;;;;;;5.55;100.00;101161.16;5273832;28;20020;-80
2021/10/17 01:37:01;;;;;;;4.20;1.55;;;;;;;5.77;100.00;101159.28;5278073;28;20031;-80
2021/10/17 01:39:32;;;;;;;2.35;1.42;;;;;;;5.87;100.00;101154.06;5273792;28;20024;-80
2021/10/17 01:42:02;;;;;;;4.13;1.60;;;;;;;5.89;100.00;101157.50;5276652;28;20028;-81
2021/10/17 01:44:34;;;;;;;5.68;2.03;;;;;;;5.87;100.00;101156.66;5276815;28;20092;-80
2021/10/17 01:47:06;;;;;;;6.45;1.85;;;;;;;5.80;100.00;101152.41;5277162;28;20036;-80
2021/10/17 01:49:37;;;;;;;3.70;1.60;;;;;;;5.86;100.00;101161.84;5279510;28;20595;-80
2021/10/17 01:52:08;;;;;;;4.15;1.55;;;;;;;5.93;100.00;101147.97;5277814;28;20038;-80
2021/10/17 01:54:38;;;;;;;6.25;1.65;;;;;;;5.85;100.00;101150.63;5277671;28;20562;-80
2021/10/17 01:57:08;;;;;;;6.47;1.60;;;;;;;5.91;100.00;101157.50;5276273;28;20472;-80
2021/10/17 01:59:39;;;;;;;4.32;1.85;;;;;;;5.88;100.00;101154.94;5278023;28;20024;-80
2021/10/17 02:02:09;;;;;;;4.65;1.75;;;;;;;5.85;100.00;101155.81;5277643;28;20629;-80
2021/10/17 02:04:39;;;;;;;6.93;1.90;;;;;;;5.86;100.00;101151.47;5278090;28;20061;-80
2021/10/17 02:07:10;;;;;;;6.05;1.73;;;;;;;6.06;100.00;101152.19;5273518;28;20104;-80
2021/10/17 02:09:40;;;;;;;4.18;1.88;;;;;;;5.93;100.00;101158.34;5275327;28;20055;-80
2021/10/17 02:12:11;;;;;;;3.58;1.60;;;;;;;5.92;100.00;101143.66;5276797;28;20035;-80
2021/10/17 02:14:42;;;;;;;4.15;1.88;;;;;;;5.94;100.00;101149.69;5278241;28;20039;-80
2021/10/17 02:17:12;;;;;;;3.72;1.65;;;;;;;5.93;100.00;101147.97;5275923;28;20229;-80
2021/10/17 02:19:42;;;;;;;3.67;1.63;;;;;;;6.03;100.00;101140.09;5281965;28;20028;-80
2021/10/17 02:22:13;;;;;;;2.40;1.38;;;;;;;6.04;100.00;101140.94;5284214;28;20499;-80
2021/10/17 02:24:43;;;;;;;6.05;1.80;;;;;;;5.96;100.00;101135.84;5279265;28;20024;-80
2021/10/17 02:27:13;;;;;;;4.82;1.95;;;;;;;5.90;100.00;101133.28;5283035;28;20024;-80
2021/10/17 02:29:43;;;;;;;6.70;1.95;;;;;;;5.94;100.00;101131.53;5284531;28;20027;-81
2021/10/17 02:32:14;;;;;;;5.75;1.77;;;;;;;6.01;100.00;101126.28;5279324;28;20113;-80
2021/10/17 02:34:44;;;;;;;4.65;1.88;;;;;;;6.06;100.00;101124.50;5282844;28;20032;-80
2021/10/17 02:37:14;;;;;;;3.28;1.63;;;;;;;6.13;100.00;101122.72;5279746;28;20230;-81
2021/10/17 02:39:45;;;;;;;7.28;1.42;;;;;;;6.18;100.00;101127.00;5274293;28;20027;-80
2021/10/17 02:42:15;;;;;;;2.88;1.60;;;;;;;6.19;100.00;101120.06;5283168;28;20049;-80
2021/10/17 02:44:45;;;;;;;6.13;1.75;;;;;;;6.11;100.00;101117.53;5278029;28;20035;-80
2021/10/17 02:47:15;;;;;;;4.68;1.58;;;;;;;6.17;100.00;101127.00;5284426;28;20028;-80
2021/10/17 02:49:46;;;;;;;4.93;2.03;;;;;;;6.11;100.00;101116.69;5283113;28;20452;-80
2021/10/17 02:52:16;;;;;;;3.10;1.73;;;;;;;6.20;100.00;101119.19;5279949;28;20031;-80
2021/10/17 02:54:46;;;;;;;5.80;1.77;;;;;;;6.22;100.00;101114.88;5278261;28;20407;-80
2021/10/17 02:57:17;;;;;;;5.05;2.03;;;;;;;6.18;100.00;101118.34;5283849;28;20149;-80
2021/10/17 02:59:47;;;;;;;4.88;1.60;;;;;;;6.18;100.00;101115.75;5282969;28;20093;-80
2021/10/17 03:02:17;;;;;;;4.28;1.88;;;;;;;6.26;100.00;101116.53;5278766;28;20051;-81
2021/10/17 03:04:47;;;;;;;4.25;1.60;;;;;;;6.35;100.00;101119.91;5283893;28;20410;-81
2021/10/17 03:07:18;;;;;;;4.55;1.67;;;;;;;6.28;100.00;101099.22;5279580;28;20028;-80
2021/10/17 03:09:48;;;;;;;4.55;1.98;;;;;;;6.40;100.00;101101.69;5299968;27;20024;-80
2021/10/17 03:12:18;;;;;;;3.45;1.35;;;;;;;6.44;100.00;101099.03;5282413;28;20031;-80
2021/10/17 03:14:48;;;;;;;3.08;1.45;;;;;;;6.44;100.00;101103.38;5279506;28;20528;-81
2021/10/17 03:17:19;;;;;;;3.88;1.63;;;;;;;6.41;100.00;101101.66;5282300;28;20031;-80
2021/10/17 03:19:49;;;;;;;5.85;1.70;;;;;;;6.37;100.00;101093.91;5277868;28;20032;-80
2021/10/17 03:22:19;;;;;;;7.38;1.60;;;;;;;6.48;100.00;101102.47;5281992;28;20027;-80
2021/10/17 03:24:50;;;;;;;5.15;1.60;;;;;;;6.52;100.00;101106.75;5279206;28;20020;-80
2021/10/17 03:27:20;;;;;;;6.18;2.15;;;;;;;6.50;100.00;101100.72;5281880;28;20031;-80
2021/10/17 03:29:50;;;;;;;3.90;1.63;;;;;;;6.70;100.00;101094.44;5271423;28;20031;-81
2021/10/17 03:32:21;;;;;;;4.15;1.67;;;;;;;6.61;100.00;101093.66;5268435;28;20433;-80
2021/10/17 03:34:51;;;;;;;5.47;1.48;;;;;;;6.64;100.00;101093.63;5286382;28;20104;-80
2021/10/17 03:37:21;;;;;;;4.80;1.60;;;;;;;6.67;100.00;101091.00;5272565;28;20130;-81
2021/10/17 03:39:52;;;;;;;3.90;1.70;;;;;;;6.71;100.00;101090.06;5286877;28;20024;-81
2021/10/17 03:42:22;;;;;;;4.97;1.67;;;;;;;6.70;100.00;101093.56;5281050;28;20022;-80
2021/10/17 03:44:52;;;;;;;5.60;1.85;;;;;;;6.75;100.00;101094.38;5278816;28;20043;-81
2021/10/17 03:47:23;;;;;;;6.18;1.70;;;;;;;6.72;100.00;101097.88;5280133;28;20035;-80
2021/10/17 03:49:53;;;;;;;4.53;1.95;;;;;;;6.63;100.00;101095.34;5277241;28;20051;-80
2021/10/17 03:52:23;;;;;;;3.83;1.85;;;;;;;6.63;100.00;101097.09;5278765;28;20020;-81
2021/10/17 03:54:54;;;;;;;4.95;2.00;;;;;;;6.61;100.00;101096.28;5281864;28;20028;-80
2021/10/17 03:57:24;;;;;;;4.60;1.70;;;;;;;6.68;100.00;101091.00;5279660;28;20023;-81
2021/10/17 03:59:54;;;;;;;4.55;1.90;;;;;;;6.63;100.00;101091.91;5273132;28;20039;-80
2021/10/17 04:02:25;;;;;;;6.50;1.90;;;;;;;6.66;100.00;101086.69;5274418;28;20019;-80
2021/10/17 04:04:55;;;;;;;10.07;1.77;;;;;;;6.73;100.00;101088.34;5279291;28;20027;-80
2021/10/17 04:07:25;;;;;;;3.38;1.67;;;;;;;6.72;100.00;101086.59;5275695;28;20113;-81
2021/10/17 04:09:55;;;;;;;2.70;1.38;;;;;;;6.84;100.00;101078.66;5275874;28;20031;-81
2021/10/17 04:12:26;;;;;;;4.30;1.50;;;;;;;6.91;100.00;101088.13;5279145;28;20053;-80
2021/10/17 04:14:56;;;;;;;4.38;1.60;;;;;;;6.95;100.00;101080.25;5278742;28;20114;-81
2021/10/17 04:17:26;;;;;;;7.43;1.77;;;;;;;6.82;100.00;101088.22;5279648;28;20024;-80
2021/10/17 04:19:57;;;;;;;4.80;1.65;;;;;;;6.79;100.00;101091.69;5280689;28;20027;-80
2021/10/17 04:22:27;;;;;;;4.28;2.03;;;;;;;6.78;100.00;101089.97;5278719;28;20112;-81
2021/10/17 04:24:57;;;;;;;4.75;1.90;;;;;;;6.87;100.00;101089.00;5280247;28;20077;-81
2021/10/17 04:27:28;;;;;;;6.97;1.85;;;;;;;6.92;100.00;101089.84;5279330;28;20035;-81
2021/10/17 04:29:58;;;;;;;2.72;1.50;;;;;;;6.94;100.00;101094.13;5275924;28;20034;-81
2021/10/17 04:32:28;;;;;;;4.10;1.55;;;;;;;6.89;100.00;101092.44;5273681;28;20077;-81
2021/10/17 04:34:58;;;;;;;4.82;1.92;;;;;;;7.18;100.00;101086.00;5275842;28;20024;-81
2021/10/17 04:37:29;;;;;;;3.97;1.67;;;;;;;7.12;100.00;101086.06;5275824;28;20470;-81
2021/10/17 04:40:00;;;;;;;4.63;1.65;;;;;;;7.22;100.00;101080.72;5277725;28;20237;-81
2021/10/17 04:42:30;;;;;;;4.93;1.55;;;;;;;7.31;100.00;101080.63;5278639;28;20475;-81
2021/10/17 04:45:01;;;;;;;5.63;1.52;;;;;;;7.32;100.00;101082.31;5278920;28;20023;-80
2021/10/17 04:47:32;;;;;;;6.25;2.13;;;;;;;7.18;100.00;101075.63;5281065;28;20043;-81
2021/10/17 04:50:02;;;;;;;4.72;1.70;;;;;;;7.18;100.00;101073.03;5278761;28;20027;-81
2021/10/17 04:52:33;;;;;;;6.10;1.65;;;;;;;7.27;100.00;101082.44;5278962;28;20036;-81
2021/10/17 04:55:07;;;;;;;6.43;2.13;;;;;;;7.18;100.00;101072.16;5279666;28;20031;-81
2021/10/17 04:57:38;;;;;;;3.40;1.65;;;;;;;7.13;100.00;101074.78;5281883;28;20089;-81
2021/10/17 05:00:08;;;;;;;3.55;1.65;;;;;;;7.12;100.00;101078.28;5276760;28;20026;-81
2021/10/17 05:02:39;;;;;;;3.40;1.55;;;;;;;7.20;100.00;101085.97;5274637;28;20483;-81
2021/10/17 05:05:09;;;;;;;4.05;1.63;;;;;;;7.16;100.00;101084.31;5280036;28;20023;-81
2021/10/17 05:07:41;;;;;;;4.60;1.98;;;;;;;7.18;100.00;101082.53;5275082;27;20031;-81
2021/10/17 05:10:12;;;;;;;4.43;1.77;;;;;;;7.16;100.00;101079.09;5274952;28;20055;-81
2021/10/17 05:12:42;;;;;;;5.45;1.88;;;;;;;7.19;100.00;101079.06;5282310;28;20393;-81
2021/10/17 05:15:12;;;;;;;4.20;1.77;;;;;;;7.15;100.00;101080.00;5276033;28;20274;-81
2021/10/17 05:17:42;;;;;;;4.35;1.85;;;;;;;7.18;100.00;101079.94;5281000;28;20104;-81
2021/10/17 05:20:13;;;;;;;10.23;2.10;;;;;;;7.18;100.00;101083.41;5278659;28;20024;-81
2021/10/17 05:22:43;;;;;;;6.78;2.22;;;;;;;7.07;100.00;101079.25;5281738;28;20070;-81
2021/10/17 05:25:14;;;;;;;5.05;1.75;;;;;;;7.11;100.00;101086.97;5277735;28;20024;-80
2021/10/17 05:27:44;;;;;;;5.57;1.80;;;;;;;7.10;100.00;101090.44;5280111;28;20030;-81
2021/10/17 05:30:14;;;;;;;4.90;2.05;;;;;;;7.13;100.00;101085.19;5276126;28;20037;-81
2021/10/17 05:32:44;;;;;;;5.20;2.00;;;;;;;7.14;100.00;101091.28;5277099;28;20469;-83
2021/10/17 05:35:15;;;;;;;6.90;2.28;;;;;;;7.20;100.00;101092.03;5284808;28;20024;-82
2021/10/17 05:37:45;;;;;;;6.75;2.30;;;;;;;7.28;100.00;101087.59;5280700;28;20245;-82
2021/10/17 05:40:16;;;;;;;8.18;2.10;;;;;;;7.21;100.00;101087.69;5274550;28;20108;-82
2021/10/17 05:42:46;;;;;;;5.78;2.50;;;;;;;7.20;100.00;101092.03;5278860;28;20437;-82
2021/10/17 05:45:16;;;;;;;4.00;2.30;;;;;;;7.16;100.00;101086.91;5286060;28;20087;-83
2021/10/17 05:47:47;;;;;;;8.32;2.35;;;;;;;7.29;100.00;101087.56;5275475;28;20028;-82
2021/10/17 05:50:17;;;;;;;5.97;2.42;;;;;;;7.37;100.00;101088.31;5282942;28;20276;-82
2021/10/17 05:52:48;;;;;;;6.50;2.40;;;;;;;7.35;100.00;101095.28;5277796;28;20081;-82
2021/10/17 05:55:19;;;;;;;6.00;2.33;;;;;;;7.31;100.00;101098.81;5284522;28;20364;-83
2021/10/17 05:57:49;;;;;;;6.70;2.50;;;;;;;7.32;100.00;101091.88;5280312;28;20024;-83
2021/10/17 06:00:21;;;;;;;11.20;3.10;;;;;;;7.39;100.00;101096.94;5278263;28;20024;-82
2021/10/17 06:02:51;;;;;;;8.20;2.38;;;;;;;7.30;100.00;101099.69;5297626;27;20394;-83
2021/10/17 06:05:21;;;;;;;5.85;2.22;;;;;;;7.37;100.00;101103.06;5284491;28;20024;-82
2021/10/17 06:07:52;;;;;;;6.20;2.83;;;;;;;7.38;100.00;101103.03;5281904;28;20321;-83
2021/10/17 06:10:22;;;;;;;6.00;2.60;;;;;;;7.38;100.00;101103.03;5280854;28;20030;-81
2021/10/17 06:12:52;;;;;;;7.57;2.88;;;;;;;7.45;100.00;101109.00;5282705;28;20112;-82
2021/10/17 06:15:23;;;;;;;5.10;2.78;;;;;;;7.36;100.00;101103.94;5280075;28;20032;-82
2021/10/17 06:17:53;;;;;;;5.57;2.90;;;;;;;7.36;100.00;101110.00;5284498;28;20458;-81
2021/10/17 06:20:23;;;;;;;9.38;3.33;;;;;;;7.44;100.00;101110.75;5282192;28;20498;-81
2021/10/17 06:22:54;;;;;;;9.45;2.85;;;;;;;7.42;100.00;101109.94;5284818;28;20102;-82
2021/10/17 06:25:24;;;;;;;6.03;2.88;;;;;;;7.40;100.00;101111.69;5277380;28;20023;-82
2021/10/17 06:28:01;;;;;;;8.57;3.17;;;;;;;7.50;100.00;101115.03;5287178;28;20474;-82
2021/10/17 06:30:40;;;;;;;8.10;3.47;;;;;;;7.61;100.00;101115.69;5284792;28;20035;-82
2021/10/17 06:33:11;;;;;;;4.95;2.85;;;;;;;7.84;100.00;101122.28;5294670;28;20033;-82
2021/10/17 06:35:41;;;;;;;5.63;2.88;;;;;;;7.86;100.00;101117.91;5283392;28;20091;-82
2021/10/17 06:38:11;;;;;;;7.57;2.58;;;;;;;7.96;100.00;101124.69;5279962;28;20020;-83
2021/10/17 06:40:42;;;;;;;4.57;2.55;;;;;;;8.03;100.00;101126.28;5282558;28;20023;-82
2021/10/17 06:43:12;;;;;;;5.68;2.80;;;;;;;8.01;100.00;101122.03;5286776;28;20116;-82
2021/10/17 06:45:42;;;;;;;6.97;2.80;;;;;;;7.92;100.00;101125.63;5284395;28;20494;-82
2021/10/17 06:48:12;;;;;;;6.03;2.75;;;;;;;7.94;100.00;101131.66;5284974;28;20024;-82
2021/10/17 06:50:43;;;;;;;9.07;2.80;;;;;;;8.21;100.00;101130.38;5281378;28;20031;-83
2021/10/17 06:53:13;;;;;;;6.75;2.90;;;;;;;8.07;100.00;101132.31;5280256;28;20062;-82
2021/10/17 06:55:44;;;;;;;6.80;2.45;;;;;;;8.15;100.00;101135.63;5276127;28;20032;-82
2021/10/17 06:58:14;;;;;;;7.35;2.92;;;;;;;8.10;100.00;101138.34;5279735;28;20079;-82
2021/10/17 07:00:44;;;;;;;9.20;3.00;;;;;;;8.08;100.00;101134.88;5279573;28;20109;-82
2021/10/17 07:03:15;;;;;;;9.00;3.03;;;;;;;8.15;100.00;101146.94;5288606;28;20031;-82
2021/10/17 07:05:45;;;;;;;8.18;3.20;;;;;;;8.19;100.00;101143.41;5275960;28;20031;-82
2021/10/17 07:08:15;;;;;;;8.50;3.20;;;;;;;8.24;100.00;101152.00;5276629;28;20024;-82
2021/10/17 07:10:46;;;;;;;6.63;2.78;;;;;;;8.33;100.00;101156.19;5284191;28;20065;-83
2021/10/17 07:13:16;;;;;;;8.02;2.83;;;;;;;8.34;100.00;101153.56;5277210;28;20116;-81
2021/10/17 07:15:46;;;;;;;6.10;3.25;;;;;;;8.39;100.00;101153.50;5285024;28;20023;-82
2021/10/17 07:18:17;;;;;;;9.30;3.25;;;;;;;8.33;100.00;101157.06;5282589;28;20483;-83
2021/10/17 07:20:47;;;;;;;6.82;2.75;;;;;;;8.38;100.00;101163.03;5285485;28;20027;-82
2021/10/17 07:23:19;;;;;;;5.35;2.92;;;;;;;8.53;100.00;101160.16;5274662;28;20379;-82
2021/10/17 07:25:49;;;;;;;5.35;2.65;;;;;;;8.59;100.00;101160.03;5274842;28;20024;-82
2021/10/17 07:28:19;;;;;;;5.63;2.85;;;;;;;8.70;100.00;101160.72;5288942;28;20037;-83
2021/10/17 07:30:50;;;;;;;8.90;3.00;;;;;;;8.64;100.00;101157.38;5281805;28;20026;-83
2021/10/17 07:33:20;;;;;;;8.68;2.95;;;;;;;8.86;100.00;101154.34;5283028;28;20037;-82
2021/10/17 07:35:50;;;;;;;8.57;3.00;;;;;;;8.93;100.00;101145.50;5284557;28;20691;-83
2021/10/17 07:38:20;;;;;;;7.32;3.28;;;;;;;8.91;100.00;101155.09;5275003;28;20020;-82
2021/10/17 07:40:51;;;;;;;6.40;2.85;;;;;;;9.07;100.00;101153.91;5281134;28;20041;-83
2021/10/17 07:43:23;;;;;;;11.10;3.35;;;;;;;9.16;100.00;101151.13;5270913;28;20142;-82
2021/10/17 07:45:53;;;;;;;6.97;2.80;;;;;;;9.34;100.00;101148.13;5274704;28;20110;-82
2021/10/17 07:48:23;;;;;;;8.07;2.70;;;;;;;9.49;100.00;101146.03;5272790;28;20040;-82
2021/10/17 07:50:54;;;;;;;5.82;2.40;;;;;;;9.51;100.00;101146.00;5290232;28;20024;-82
2021/10/17 07:53:24;;;;;;;9.02;2.85;;;;;;;9.74;100.00;101152.44;5275555;28;20040;-83
2021/10/17 07:55:54;;;;;;;8.13;2.30;;;;;;;10.01;100.00;101143.97;5274563;28;20395;-83
2021/10/17 07:58:25;;;;;;;7.32;1.90;;;;;;;9.98;100.00;101143.16;5299880;27;20112;-83
2021/10/17 08:00:56;;;;;;;4.95;2.00;;;;;;;10.29;100.00;101144.13;5274498;28;20023;-83
2021/10/17 08:03:26;;;;;;;9.25;2.47;;;;;;;10.42;100.00;101132.47;5274255;28;20036;-84
2021/10/17 08:05:56;;;;;;;8.27;2.22;;;;;;;10.62;100.00;101138.03;5281735;28;20024;-83
2021/10/17 08:08:27;;;;;;;6.78;2.05;;;;;;;10.48;99.19;101140.19;5276066;28;20425;-83
2021/10/17 08:10:57;;;;;;;6.32;2.30;;;;;;;10.58;100.00;101137.28;5276406;28;20028;-82
2021/10/17 08:13:29;;;;;;;3.95;2.25;;;;;;;10.53;100.00;101144.38;5273038;28;20062;-83
2021/10/17 08:15:59;;;;;;;9.60;2.65;;;;;;;10.42;99.10;101143.81;5271536;28;20024;-83
2021/10/17 08:18:30;;;;;;;6.57;2.22;;;;;;;10.41;98.68;101143.84;5273478;28;20049;-82
2021/10/17 08:21:00;;;;;;;6.28;2.38;;;;;;;10.42;97.98;101148.16;5274862;28;20034;-83
2021/10/17 08:23:30;;;;;;;4.78;2.20;;;;;;;10.59;99.59;101146.84;5278305;28;20422;-83
2021/10/17 08:26:01;;;;;;;7.05;2.30;;;;;;;10.47;96.10;101143.66;5273650;28;20020;-82
2021/10/17 08:28:31;;;;;;;8.98;2.58;;;;;;;10.51;97.93;101145.31;5274692;28;20032;-84
2021/10/17 08:31:01;;;;;;;10.48;2.63;;;;;;;10.32;99.07;101139.69;5272478;28;20032;-83
2021/10/17 08:33:32;;;;;;;6.80;2.40;;;;;;;10.30;99.12;101146.72;5291039;27;20032;-82
2021/10/17 08:36:02;;;;;;;7.45;2.72;;;;;;;10.32;97.89;101154.53;5284111;28;20036;-83
2021/10/17 08:38:34;;;;;;;6.80;2.65;;;;;;;10.38;97.54;101156.97;5275285;28;20515;-82
2021/10/17 08:41:06;;;;;;;7.72;2.78;;;;;;;10.47;98.77;101165.44;5276765;28;20035;-82
2021/10/17 08:43:36;;;;;;;7.40;2.45;;;;;;;10.57;96.98;101160.84;5265052;28;20066;-82
2021/10/17 08:46:09;;;;;;;8.32;2.65;;;;;;;10.51;98.94;101169.69;5277125;28;20019;-82
2021/10/17 08:48:43;;;;;;;7.18;2.58;;;;;;;10.66;97.78;101168.44;5264814;28;20044;-82
2021/10/17 08:51:14;;;;;;;7.03;2.35;;;;;;;10.88;95.42;101172.19;5273114;28;20054;-81
2021/10/17 08:53:44;;;;;;;5.93;2.35;;;;;;;10.73;94.95;101170.88;5263675;28;20063;-82
2021/10/17 08:56:14;;;;;;;9.70;2.60;;;;;;;10.78;92.77;101174.19;5280520;28;20104;-82
2021/10/17 08:58:45;;;;;;;6.75;2.63;;;;;;;10.88;90.04;101174.81;5271283;28;20038;-82
2021/10/17 09:01:16;;;;;;;7.22;3.05;;;;;;;10.83;90.68;101179.31;5271731;28;20093;-81
2021/10/17 09:03:54;;;;;;;6.05;2.03;;;;;;;10.94;90.63;101172.00;5267698;28;20023;-82
2021/10/17 09:06:27;;;;;;;7.82;2.47;;;;;;;10.87;89.26;101175.72;5269968;28;20039;-81
2021/10/17 09:09:05;;;;;;;5.22;1.88;;;;;;;11.20;89.17;101181.72;5265884;28;20023;-82
2021/10/17 09:11:52;;;;;;;4.93;1.98;;;;;;;11.08;88.43;101176.81;5269544;28;20691;-82
2021/10/17 09:14:25;;;;;;;6.32;1.80;;;;;;;10.86;88.55;101179.22;5270598;28;20044;-82
2021/10/17 09:16:59;;;;;;;5.40;2.15;;;;;;;11.02;91.25;101181.38;5276306;28;20019;-82
2021/10/17 09:19:31;;;;;;;6.18;2.00;;;;;;;10.93;90.52;101171.16;5272343;28;20522;-82
2021/10/17 09:22:11;;;;;;;4.65;1.70;;;;;;;10.96;89.70;101186.78;5262256;28;20052;-81
2021/10/17 09:24:51;;;;;;;5.72;1.90;;;;;;;11.10;89.04;101182.03;5261211;28;20044;-82
2021/10/17 09:27:23;;;;;;;5.85;2.03;;;;;;;11.05;89.78;101176.91;5269021;28;20104;-81
2021/10/17 09:29:55;;;;;;;4.38;1.90;;;;;;;11.29;87.67;101178.81;5274222;28;20039;-82
2021/10/17 09:32:28;;;;;;;6.93;1.98;;;;;;;11.19;88.72;101180.00;5268813;28;20065;-82
2021/10/17 09:35:04;;;;;;;5.10;1.60;;;;;;;11.22;86.89;101182.53;5275631;28;20048;-82
2021/10/17 09:37:40;;;;;;;5.60;1.63;;;;;;;11.14;86.65;101181.88;5267439;28;20020;-82
2021/10/17 09:40:24;;;;;;;9.45;2.00;;;;;;;11.19;87.42;101184.38;5272659;28;20032;-81
2021/10/17 09:43:10;;;;;;;6.32;2.10;;;;;;;11.20;89.90;101176.50;5278497;28;20020;-82
2021/10/17 09:45:41;;;;;;;8.00;1.90;;;;;;;11.10;87.47;101182.88;5278551;28;20059;-81
2021/10/17 09:48:29;;;;;;;6.72;2.05;;;;;;;11.14;87.60;101186.25;5275347;28;20106;-81
2021/10/17 09:51:01;;;;;;;6.85;2.40;;;;;;;11.08;88.86;101181.22;5277386;28;20624;-81
2021/10/17 09:53:47;;;;;;;7.82;2.10;;;;;;;11.22;88.06;101195.63;5272253;28;20032;-81
2021/10/17 09:56:24;;;;;;;;;;;;;;;10.96;88.38;101184.16;5272808;28;20088;-82
2021/10/17 09:58:54;;;;;;;4.35;1.88;;;;;;;11.35;87.06;101196.97;5291315;27;19954;-80
2021/10/17 10:01:25;;;;;;;6.45;1.98;;;;;;;11.18;87.59;101191.38;5265595;28;20466;-80
2021/10/17 10:03:58;;;;;;;11.95;2.28;;;;;;;10.99;88.06;101188.47;5271251;28;20028;-80
2021/10/17 10:06:30;;;;;;;5.22;1.85;;;;;;;11.02;88.03;101195.31;5274208;28;20063;-80
2021/10/17 10:09:06;;;;;;;6.82;2.17;;;;;;;11.13;88.44;101195.84;5284292;28;20031;-81
2021/10/17 10:11:38;;;;;;;7.65;2.08;;;;;;;11.23;88.72;101196.44;5271334;28;20115;-80
2021/10/17 10:14:09;;;;;;;10.27;2.10;;;;;;;11.10;89.37;101189.88;5278855;28;20045;-80
2021/10/17 10:16:41;;;;;;;8.70;2.20;;;;;;;11.05;90.34;101184.75;5290178;27;21262;-81
2021/10/17 10:19:14;;;;;;;8.90;2.03;;;;;;;11.24;89.68;101177.28;5273554;28;20024;-80
2021/10/17 10:21:44;;;;;;;5.32;1.80;;;;;;;11.20;90.08;101173.88;5273610;28;20067;-81
2021/10/17 10:24:17;;;;;;;4.82;1.90;;;;;;;11.24;91.23;101178.09;5269610;28;20063;-80
2021/10/17 10:26:52;;;;;;;6.55;2.25;;;;;;;11.45;90.53;101167.00;5276161;28;20032;-81
2021/10/17 10:29:24;;;;;;;;;;;;;;;11.40;90.56;101174.16;5274842;28;20208;-81
2021/10/17 10:31:56;;;;;;;4.28;2.00;;;;;;;11.11;88.48;101171.50;5270883;28;19968;-81
2021/10/17 10:34:36;;;;;;;5.25;1.83;;;;;;;11.38;90.09;101165.50;5270014;28;20211;-80
2021/10/17 10:37:14;;;;;;;4.38;1.98;;;;;;;11.40;88.17;101163.69;5278151;28;20085;-81
2021/10/17 10:40:00;;;;;;;7.22;1.92;;;;;;;11.18;86.18;101164.34;5268998;28;20329;-81
2021/10/17 10:42:48;;;;;;;4.93;1.98;;;;;;;11.43;87.57;101158.34;5270936;28;20097;-81
2021/10/17 10:45:35;;;;;;;5.68;2.13;;;;;;;11.46;88.58;101163.47;5273390;28;20059;-81
2021/10/17 10:48:06;;;;;;;7.82;2.30;;;;;;;11.54;88.37;101166.75;5271698;28;20092;-80
2021/10/17 10:50:39;;;;;;;8.07;2.23;;;;;;;11.61;90.09;101164.84;5267452;28;20466;-81
2021/10/17 10:53:10;;;;;;;6.85;2.33;;;;;;;11.79;88.33;101169.50;5271849;28;20331;-80
2021/10/17 10:55:43;;;;;;;5.13;1.92;;;;;;;11.91;87.84;101169.09;5273251;28;20369;-81
2021/10/17 10:58:32;;;;;;;5.05;1.95;;;;;;;11.80;85.52;101172.06;5273836;28;20032;-81
2021/10/17 11:01:03;;;;;;;4.75;2.05;;;;;;;11.77;84.33;101176.56;5274624;27;20491;-81
2021/10/17 11:03:44;;;;;;;4.65;1.80;;;;;;;11.83;85.73;101174.63;5266624;28;20589;-81
2021/10/17 11:06:16;;;;;;;6.18;1.80;;;;;;;12.12;85.47;101177.16;5269774;28;20027;-81
2021/10/17 11:09:22;;;;;;;7.78;2.50;;;;;;;12.21;82.93;101174.25;5269411;28;20052;-81
2021/10/17 11:11:52;;;;;;;7.80;2.08;;;;;;;12.15;84.92;101176.19;5273965;28;20534;-81
2021/10/17 11:14:22;;;;;;;5.93;2.33;;;;;;;12.18;85.57;101176.97;5274365;28;20069;-81
2021/10/17 11:16:59;;;;;;;7.35;2.50;;;;;;;12.35;84.92;101176.41;5275363;28;20538;-81
2021/10/17 11:19:29;;;;;;;8.27;2.55;;;;;;;12.51;85.05;101181.09;5265741;28;20039;-81
2021/10/17 11:22:01;;;;;;;5.43;2.38;;;;;;;12.45;84.95;101185.69;5276698;28;20280;-81
2021/10/17 11:24:33;;;;;;;7.10;2.90;;;;;;;12.50;86.63;101181.13;5275157;28;20406;-81
2021/10/17 11:27:09;;;;;;;6.90;3.03;;;;;;;12.47;84.32;101182.09;5275271;28;20080;-81
2021/10/17 11:29:43;;;;;;;8.25;2.90;;;;;;;12.51;84.89;101177.59;5275281;28;20619;-81
2021/10/17 11:32:17;;;;;;;9.18;2.85;;;;;;;12.40;85.26;101177.97;5272095;28;20031;-81
2021/10/17 11:34:56;;;;;;;7.07;2.58;;;;;;;12.60;84.58;101170.28;5264445;28;20040;-81
2021/10/17 11:37:29;;;;;;;8.68;2.95;;;;;;;12.64;85.05;101177.13;5268123;28;20122;-81
2021/10/17 11:40:03;;;;;;;8.38;3.30;;;;;;;12.30;84.38;101176.56;5267377;28;20554;-81
2021/10/17 11:42:49;;;;;;;7.95;3.00;;;;;;;12.49;85.68;101175.03;5271445;28;20027;-81
2021/10/17 11:45:34;;;;;;;6.88;2.90;;;;;;;12.64;83.11;101169.25;5268310;28;20032;-81